Airfield :
LOGIN :

Register | Disclaimer

   EN    FR    IT 

 










Legend :    VFR   Marginal VFR   IFR   Intensive IFR   Very Intensive IFR
Visi :
Ceiling :
>= 8 km
>= 3000ft
5 to 8 km
1000 to 3000 ft
1500m to 5 km
500 to 1000 ft
800 to 1500m
200 to 500 ft
< 800m
< 200 ft
Symbols :   Thunderstorms  Fog  Heavy snow  Heavy precipitations  Wind > 20 kt
SIGMETs :     Misc.  Thunderstorms  Icing  Turbulence  Mountain Waves  Volcanic Ashes







- Airport Elevation : 1966 ft
- IATA code : SGE


EDGS - Siegerland

CURRENT METAR :
  • 251220Z 29011KT 240V340 9999 BKN040 05/M04 Q1007

EXPIRED METARs :
  • 251150Z 29013G23KT 220V320 9999 FEW022 BKN042 05/M04 Q1007
  • 251120Z 29011KT 230V330 9999 SCT022 BKN041 04/M03 Q1007
  • 251050Z 27009G20KT 170V340 9999 SCT022 BKN040 04/M01 Q1007
  • 251020Z 28011KT 220V340 9999 FEW011 SCT022 BKN075 04/M00 Q1006
  • 250950Z 26008KT 200V320 9999 FEW011 BKN016 03/M01 Q1006
  • 250920Z 28012G24KT 220V360 9999 FEW008 BKN011 04/01 Q1006

TAF TAF EDGS
Valid from the 25 at 12:00 until the 25 at 21:00 UTC


251100Z 2512/2521 29011KT 9999 BKN030
TEMPO 2512/2517 27015G25KT
PROB30
TEMPO 2512/2518 29020G30KT 4500 SHRAGS BKN011CB
BECMG 2517/2520 31005KT
No reported NOTAMs for that airfield.



MET'MAP, your aeronautical weather chart ! - Copyright ORBIFLY December 2007 - Disclaimer

ORBIFLY MET'MAP TEAM :

Programming & Development : Alexandra Zaïnal
Concept & Development : Baudouin d'Aumeries
Co-Development & Prog : Marc-Olivier Méhu
Technical & hardware support : Manuel Goepfert

Contact : metmap@orbifly.com




SOURCES & CREDITS :

   NOAA